sensor_id;sensor_type;location;lat;lon;timestamp;pressure;altitude;pressure_sealevel;temperature;humidity
3428;BME280;1727;42.624;23.406;2023-05-24T00:01:12;94650.47;;;15.45;75.90
3428;BME280;1727;42.624;23.406;2023-05-24T00:03:40;94649.16;;;15.41;75.66
3428;BME280;1727;42.624;23.406;2023-05-24T00:06:11;94652.09;;;15.30;76.37
3428;BME280;1727;42.624;23.406;2023-05-24T00:08:38;94651.94;;;15.32;76.71
3428;BME280;1727;42.624;23.406;2023-05-24T00:11:04;94650.47;;;15.37;76.67
3428;BME280;1727;42.624;23.406;2023-05-24T00:13:31;94646.19;;;15.36;77.16
3428;BME280;1727;42.624;23.406;2023-05-24T00:15:59;94654.44;;;15.41;76.30
3428;BME280;1727;42.624;23.406;2023-05-24T00:18:26;94650.47;;;15.37;76.13
3428;BME280;1727;42.624;23.406;2023-05-24T00:20:55;94651.09;;;15.31;76.30
3428;BME280;1727;42.624;23.406;2023-05-24T00:23:22;94643.66;;;15.27;76.87
3428;BME280;1727;42.624;23.406;2023-05-24T00:25:49;94657.72;;;15.27;76.97
3428;BME280;1727;42.624;23.406;2023-05-24T00:28:16;94651.59;;;15.27;77.09
3428;BME280;1727;42.624;23.406;2023-05-24T00:30:43;94647.13;;;15.27;76.71
3428;BME280;1727;42.624;23.406;2023-05-24T00:33:11;94654.06;;;15.28;77.35
3428;BME280;1727;42.624;23.406;2023-05-24T00:35:38;94661.84;;;15.30;76.74
3428;BME280;1727;42.624;23.406;2023-05-24T00:38:05;94658.88;;;15.08;77.68
3428;BME280;1727;42.624;23.406;2023-05-24T00:40:31;94657.03;;;15.01;78.62
3428;BME280;1727;42.624;23.406;2023-05-24T00:42:58;94655.88;;;15.03;80.14
3428;BME280;1727;42.624;23.406;2023-05-24T00:45:25;94653.09;;;15.05;80.09
3428;BME280;1727;42.624;23.406;2023-05-24T00:47:52;94655.06;;;15.11;80.40
3428;BME280;1727;42.624;23.406;2023-05-24T00:50:21;94659.88;;;15.15;80.38
3428;BME280;1727;42.624;23.406;2023-05-24T00:52:49;94655.06;;;15.19;79.76
3428;BME280;1727;42.624;23.406;2023-05-24T00:55:17;94657.06;;;15.17;79.20
3428;BME280;1727;42.624;23.406;2023-05-24T00:57:44;94649.47;;;15.14;79.44
3428;BME280;1727;42.624;23.406;2023-05-24T01:00:13;94656.41;;;15.15;79.16
3428;BME280;1727;42.624;23.406;2023-05-24T01:02:40;94654.56;;;15.15;79.75
3428;BME280;1727;42.624;23.406;2023-05-24T01:05:07;94652.44;;;15.11;79.35
3428;BME280;1727;42.624;23.406;2023-05-24T01:07:47;94655.25;;;15.09;79.20
3428;BME280;1727;42.624;23.406;2023-05-24T01:10:24;94656.06;;;15.10;79.13
3428;BME280;1727;42.624;23.406;2023-05-24T01:13:00;94659.03;;;15.07;79.58
3428;BME280;1727;42.624;23.406;2023-05-24T01:15:37;94654.91;;;15.04;79.40
3428;BME280;1727;42.624;23.406;2023-05-24T01:18:16;94651.44;;;15.04;79.45
3428;BME280;1727;42.624;23.406;2023-05-24T01:20:51;94656.56;;;15.05;78.92
3428;BME280;1727;42.624;23.406;2023-05-24T01:23:31;94657.56;;;15.04;79.36
3428;BME280;1727;42.624;23.406;2023-05-24T01:26:17;94648.94;;;15.02;79.39
3428;BME280;1727;42.624;23.406;2023-05-24T01:28:48;94660.50;;;15.01;78.95
3428;BME280;1727;42.624;23.406;2023-05-24T01:31:16;94673.19;;;14.98;78.22
3428;BME280;1727;42.624;23.406;2023-05-24T01:33:43;94675.19;;;14.96;78.83
3428;BME280;1727;42.624;23.406;2023-05-24T01:36:10;94675.50;;;14.93;79.83
3428;BME280;1727;42.624;23.406;2023-05-24T01:38:38;94667.41;;;14.94;79.89
3428;BME280;1727;42.624;23.406;2023-05-24T01:41:13;94669.72;;;14.97;79.63
3428;BME280;1727;42.624;23.406;2023-05-24T01:43:50;94674.03;;;14.98;80.20
3428;BME280;1727;42.624;23.406;2023-05-24T01:46:22;94671.59;;;15.05;80.07
3428;BME280;1727;42.624;23.406;2023-05-24T01:48:57;94671.56;;;14.97;80.38
3428;BME280;1727;42.624;23.406;2023-05-24T01:51:40;94675.69;;;14.99;80.77
3428;BME280;1727;42.624;23.406;2023-05-24T01:54:11;94671.88;;;15.02;80.66
3428;BME280;1727;42.624;23.406;2023-05-24T01:56:40;94671.59;;;15.05;80.94
3428;BME280;1727;42.624;23.406;2023-05-24T01:59:10;94675.22;;;15.04;81.07
3428;BME280;1727;42.624;23.406;2023-05-24T02:01:38;94675.22;;;15.04;81.12
3428;BME280;1727;42.624;23.406;2023-05-24T02:04:06;94666.44;;;14.95;80.46
3428;BME280;1727;42.624;23.406;2023-05-24T02:06:33;94668.25;;;14.95;81.07
3428;BME280;1727;42.624;23.406;2023-05-24T02:09:00;94665.25;;;14.90;81.01
3428;BME280;1727;42.624;23.406;2023-05-24T02:11:27;94661.97;;;14.87;81.44
3428;BME280;1727;42.624;23.406;2023-05-24T02:13:53;94660.31;;;14.86;81.65
3428;BME280;1727;42.624;23.406;2023-05-24T02:16:21;94663.94;;;14.85;81.83
3428;BME280;1727;42.624;23.406;2023-05-24T02:18:51;94663.63;;;14.88;81.18
3428;BME280;1727;42.624;23.406;2023-05-24T02:21:17;94654.38;;;14.84;80.93
3428;BME280;1727;42.624;23.406;2023-05-24T02:23:44;94654.03;;;14.79;80.89
3428;BME280;1727;42.624;23.406;2023-05-24T02:26:11;94651.66;;;14.68;81.09
3428;BME280;1727;42.624;23.406;2023-05-24T02:28:39;94650.00;;;14.67;80.98
3428;BME280;1727;42.624;23.406;2023-05-24T02:31:05;94646.22;;;14.62;81.14
3428;BME280;1727;42.624;23.406;2023-05-24T02:33:34;94647.84;;;14.54;81.64
3428;BME280;1727;42.624;23.406;2023-05-24T02:36:01;94647.34;;;14.51;81.58
3428;BME280;1727;42.624;23.406;2023-05-24T02:38:28;94650.31;;;14.48;82.21
3428;BME280;1727;42.624;23.406;2023-05-24T02:40:56;94657.00;;;14.42;82.67
3428;BME280;1727;42.624;23.406;2023-05-24T02:43:22;94646.59;;;14.41;82.48
3428;BME280;1727;42.624;23.406;2023-05-24T02:45:49;94651.19;;;14.39;82.69
3428;BME280;1727;42.624;23.406;2023-05-24T02:48:16;94644.28;;;14.38;82.52
3428;BME280;1727;42.624;23.406;2023-05-24T02:50:44;94648.53;;;14.31;82.79
3428;BME280;1727;42.624;23.406;2023-05-24T02:53:11;94642.94;;;14.34;83.20
3428;BME280;1727;42.624;23.406;2023-05-24T02:55:38;94648.06;;;14.35;83.02
3428;BME280;1727;42.624;23.406;2023-05-24T02:58:04;94651.84;;;14.33;82.66
3428;BME280;1727;42.624;23.406;2023-05-24T03:00:32;94651.19;;;14.31;83.28
3428;BME280;1727;42.624;23.406;2023-05-24T03:02:59;94646.06;;;14.29;83.44
3428;BME280;1727;42.624;23.406;2023-05-24T03:05:27;94645.75;;;14.32;83.52
3428;BME280;1727;42.624;23.406;2023-05-24T03:07:55;94656.66;;;14.37;84.09
3428;BME280;1727;42.624;23.406;2023-05-24T03:10:22;94657.00;;;14.42;83.80
3428;BME280;1727;42.624;23.406;2023-05-24T03:12:49;94652.78;;;14.49;83.68
3428;BME280;1727;42.624;23.406;2023-05-24T03:15:16;94656.59;;;14.55;82.63
3428;BME280;1727;42.624;23.406;2023-05-24T03:17:43;94668.19;;;14.70;82.56
3428;BME280;1727;42.624;23.406;2023-05-24T03:20:10;94661.97;;;14.87;80.65
3428;BME280;1727;42.624;23.406;2023-05-24T03:22:37;94672.91;;;15.09;80.59
3428;BME280;1727;42.624;23.406;2023-05-24T03:25:06;94669.16;;;15.36;79.58
3428;BME280;1727;42.624;23.406;2023-05-24T03:27:33;94665.38;;;15.63;78.19
3428;BME280;1727;42.624;23.406;2023-05-24T03:30:00;94679.56;;;15.86;76.12
3428;BME280;1727;42.624;23.406;2023-05-24T03:32:27;94686.47;;;16.11;75.32
3428;BME280;1727;42.624;23.406;2023-05-24T03:34:53;94685.81;;;16.09;74.39
3428;BME280;1727;42.624;23.406;2023-05-24T03:37:21;94688.31;;;15.95;74.82
3428;BME280;1727;42.624;23.406;2023-05-24T03:39:48;94691.13;;;15.85;76.21
3428;BME280;1727;42.624;23.406;2023-05-24T03:42:16;94689.31;;;15.86;76.55
3428;BME280;1727;42.624;23.406;2023-05-24T03:44:43;94696.59;;;15.84;76.20
3428;BME280;1727;42.624;23.406;2023-05-24T03:47:10;94694.75;;;16.00;76.83
3428;BME280;1727;42.624;23.406;2023-05-24T03:49:36;94687.06;;;16.38;75.05
3428;BME280;1727;42.624;23.406;2023-05-24T03:52:03;94690.59;;;16.78;74.03
3428;BME280;1727;42.624;23.406;2023-05-24T03:54:30;94684.72;;;17.21;71.37
3428;BME280;1727;42.624;23.406;2023-05-24T03:56:57;94686.88;;;17.63;69.09
3428;BME280;1727;42.624;23.406;2023-05-24T03:59:25;94688.50;;;18.10;67.20
3428;BME280;1727;42.624;23.406;2023-05-24T04:01:52;94695.75;;;18.46;64.95
3428;BME280;1727;42.624;23.406;2023-05-24T04:04:19;94693.50;;;18.72;63.64
3428;BME280;1727;42.624;23.406;2023-05-24T04:06:45;94697.22;;;19.07;63.08
3428;BME280;1727;42.624;23.406;2023-05-24T04:09:14;94691.81;;;19.37;61.33
3428;BME280;1727;42.624;23.406;2023-05-24T04:11:41;94692.09;;;19.63;60.05
3428;BME280;1727;42.624;23.406;2023-05-24T04:14:07;94695.97;;;19.82;59.12
3428;BME280;1727;42.624;23.406;2023-05-24T04:16:36;94697.81;;;20.03;58.75
3428;BME280;1727;42.624;23.406;2023-05-24T04:19:03;94693.44;;;20.23;58.35
3428;BME280;1727;42.624;23.406;2023-05-24T04:21:30;94692.31;;;20.39;56.35
3428;BME280;1727;42.624;23.406;2023-05-24T04:23:57;94699.28;;;20.61;56.82
3428;BME280;1727;42.624;23.406;2023-05-24T04:26:25;94697.09;;;20.78;55.70
3428;BME280;1727;42.624;23.406;2023-05-24T04:28:52;94699.84;;;20.91;55.76
3428;BME280;1727;42.624;23.406;2023-05-24T04:31:20;94709.59;;;21.12;54.17
3428;BME280;1727;42.624;23.406;2023-05-24T04:33:48;94698.59;;;21.35;53.71
3428;BME280;1727;42.624;23.406;2023-05-24T04:36:15;94704.41;;;21.58;53.39
3428;BME280;1727;42.624;23.406;2023-05-24T04:38:42;94705.06;;;21.80;53.29
3428;BME280;1727;42.624;23.406;2023-05-24T04:41:10;94708.94;;;21.64;54.87
3428;BME280;1727;42.624;23.406;2023-05-24T04:43:37;94712.97;;;21.34;55.48
3428;BME280;1727;42.624;23.406;2023-05-24T04:46:04;94710.91;;;20.88;57.16
3428;BME280;1727;42.624;23.406;2023-05-24T04:48:32;94722.03;;;20.98;57.88
3428;BME280;1727;42.624;23.406;2023-05-24T04:51:00;94728.81;;;21.01;57.77
3428;BME280;1727;42.624;23.406;2023-05-24T04:53:27;94730.81;;;21.33;56.96
3428;BME280;1727;42.624;23.406;2023-05-24T04:55:53;94732.66;;;21.33;56.42
3428;BME280;1727;42.624;23.406;2023-05-24T04:58:20;94731.78;;;20.50;58.59
3428;BME280;1727;42.624;23.406;2023-05-24T05:00:47;94723.75;;;19.73;61.48
3428;BME280;1727;42.624;23.406;2023-05-24T05:03:14;94721.44;;;19.12;64.21
3428;BME280;1727;42.624;23.406;2023-05-24T05:05:40;94728.78;;;19.10;64.78
3428;BME280;1727;42.624;23.406;2023-05-24T05:08:08;94730.63;;;19.31;64.57
3428;BME280;1727;42.624;23.406;2023-05-24T05:10:35;94727.34;;;19.29;65.47
3428;BME280;1727;42.624;23.406;2023-05-24T05:13:02;94721.38;;;19.42;65.02
3428;BME280;1727;42.624;23.406;2023-05-24T05:15:29;94727.09;;;19.82;64.47
3428;BME280;1727;42.624;23.406;2023-05-24T05:17:56;94726.09;;;20.32;62.39
3428;BME280;1727;42.624;23.406;2023-05-24T05:20:23;94732.03;;;20.83;60.92
3428;BME280;1727;42.624;23.406;2023-05-24T05:22:50;94739.03;;;21.39;58.29
3428;BME280;1727;42.624;23.406;2023-05-24T05:25:18;94734.03;;;21.70;57.24
3428;BME280;1727;42.624;23.406;2023-05-24T05:27:45;94733.69;;;22.06;55.99
3428;BME280;1727;42.624;23.406;2023-05-24T05:30:12;94730.41;;;22.37;54.85
3428;BME280;1727;42.624;23.406;2023-05-24T05:32:39;94728.09;;;22.80;54.27
3428;BME280;1727;42.624;23.406;2023-05-24T05:35:07;94732.38;;;23.14;53.39
3428;BME280;1727;42.624;23.406;2023-05-24T05:37:34;94721.91;;;23.58;51.10
3428;BME280;1727;42.624;23.406;2023-05-24T05:40:00;94722.06;;;24.01;49.89
3428;BME280;1727;42.624;23.406;2023-05-24T05:42:30;94730.66;;;24.41;48.92
3428;BME280;1727;42.624;23.406;2023-05-24T05:44:56;94726.00;;;24.73;46.91
3428;BME280;1727;42.624;23.406;2023-05-24T05:47:23;94732.34;;;25.04;45.98
3428;BME280;1727;42.624;23.406;2023-05-24T05:49:50;94731.81;;;25.31;45.17
3428;BME280;1727;42.624;23.406;2023-05-24T05:52:17;94725.53;;;25.56;44.38
3428;BME280;1727;42.624;23.406;2023-05-24T05:54:43;94717.97;;;25.83;42.63
3428;BME280;1727;42.624;23.406;2023-05-24T05:57:10;94722.53;;;25.94;41.87
3428;BME280;1727;42.624;23.406;2023-05-24T05:59:38;94719.31;;;26.04;42.06
3428;BME280;1727;42.624;23.406;2023-05-24T06:02:05;94728.94;;;26.23;41.56
3428;BME280;1727;42.624;23.406;2023-05-24T06:04:32;94730.06;;;26.45;41.12
3428;BME280;1727;42.624;23.406;2023-05-24T06:06:59;94731.34;;;26.54;39.16
3428;BME280;1727;42.624;23.406;2023-05-24T06:09:26;94731.94;;;26.57;39.07
3428;BME280;1727;42.624;23.406;2023-05-24T06:11:52;94737.13;;;26.70;39.86
3428;BME280;1727;42.624;23.406;2023-05-24T06:14:19;94735.00;;;26.83;41.01
3428;BME280;1727;42.624;23.406;2023-05-24T06:16:48;94738.75;;;26.71;44.22
3428;BME280;1727;42.624;23.406;2023-05-24T06:19:16;94736.63;;;26.49;44.52
3428;BME280;1727;42.624;23.406;2023-05-24T06:21:43;94735.97;;;25.82;45.02
3428;BME280;1727;42.624;23.406;2023-05-24T06:24:12;94730.63;;;25.46;46.13
3428;BME280;1727;42.624;23.406;2023-05-24T06:26:39;94735.41;;;25.25;46.77
3428;BME280;1727;42.624;23.406;2023-05-24T06:29:07;94731.06;;;25.06;48.04
3428;BME280;1727;42.624;23.406;2023-05-24T06:31:33;94738.09;;;24.82;48.66
3428;BME280;1727;42.624;23.406;2023-05-24T06:34:02;94740.00;;;24.32;49.05
3428;BME280;1727;42.624;23.406;2023-05-24T06:36:28;94733.78;;;23.68;51.17
3428;BME280;1727;42.624;23.406;2023-05-24T06:38:58;94734.09;;;23.85;52.71
3428;BME280;1727;42.624;23.406;2023-05-24T06:41:25;94730.09;;;24.26;50.78
3428;BME280;1727;42.624;23.406;2023-05-24T06:43:52;94733.97;;;23.73;51.45
3428;BME280;1727;42.624;23.406;2023-05-24T06:46:19;94728.84;;;23.72;52.13
3428;BME280;1727;42.624;23.406;2023-05-24T06:48:46;94723.88;;;24.07;52.28
3428;BME280;1727;42.624;23.406;2023-05-24T06:51:14;94732.06;;;24.44;50.83
3428;BME280;1727;42.624;23.406;2023-05-24T06:53:41;94717.22;;;24.84;50.50
3428;BME280;1727;42.624;23.406;2023-05-24T06:56:08;94723.16;;;24.93;49.11
3428;BME280;1727;42.624;23.406;2023-05-24T06:58:35;94721.91;;;25.14;49.74
3428;BME280;1727;42.624;23.406;2023-05-24T07:01:02;94721.44;;;25.53;48.76
3428;BME280;1727;42.624;23.406;2023-05-24T07:03:29;94723.44;;;25.76;47.60
3428;BME280;1727;42.624;23.406;2023-05-24T07:05:56;94722.63;;;25.57;47.66
3428;BME280;1727;42.624;23.406;2023-05-24T07:08:25;94716.19;;;25.77;47.27
3428;BME280;1727;42.624;23.406;2023-05-24T07:10:52;94726.06;;;25.94;47.51
3428;BME280;1727;42.624;23.406;2023-05-24T07:13:19;94723.41;;;25.28;47.73
3428;BME280;1727;42.624;23.406;2023-05-24T07:15:46;94714.66;;;25.32;49.05
3428;BME280;1727;42.624;23.406;2023-05-24T07:18:13;94721.47;;;25.65;48.39
3428;BME280;1727;42.624;23.406;2023-05-24T07:20:40;94724.88;;;25.90;47.40
3428;BME280;1727;42.624;23.406;2023-05-24T07:23:07;94725.06;;;26.19;47.59
3428;BME280;1727;42.624;23.406;2023-05-24T07:25:35;94731.50;;;26.18;46.26
3428;BME280;1727;42.624;23.406;2023-05-24T07:28:02;94723.09;;;26.14;46.49
3428;BME280;1727;42.624;23.406;2023-05-24T07:30:28;94735.47;;;26.15;46.34
3428;BME280;1727;42.624;23.406;2023-05-24T07:32:55;94727.94;;;25.94;46.92
3428;BME280;1727;42.624;23.406;2023-05-24T07:35:22;94733.72;;;26.09;46.16
3428;BME280;1727;42.624;23.406;2023-05-24T07:37:49;94731.50;;;26.18;46.17
3428;BME280;1727;42.624;23.406;2023-05-24T07:40:16;94733.16;;;26.31;45.80
3428;BME280;1727;42.624;23.406;2023-05-24T07:42:44;94724.16;;;26.25;46.21
3428;BME280;1727;42.624;23.406;2023-05-24T07:45:11;94725.06;;;26.19;46.06
3428;BME280;1727;42.624;23.406;2023-05-24T07:47:39;94726.22;;;26.11;45.34
3428;BME280;1727;42.624;23.406;2023-05-24T07:50:06;94731.19;;;25.84;45.60
3428;BME280;1727;42.624;23.406;2023-05-24T07:52:33;94724.09;;;26.02;45.94
3428;BME280;1727;42.624;23.406;2023-05-24T07:55:00;94722.69;;;25.99;45.77
3428;BME280;1727;42.624;23.406;2023-05-24T07:57:26;94718.28;;;26.16;46.29
3428;BME280;1727;42.624;23.406;2023-05-24T07:59:55;94709.63;;;26.26;46.90
3428;BME280;1727;42.624;23.406;2023-05-24T08:02:21;94718.06;;;26.18;47.54
3428;BME280;1727;42.624;23.406;2023-05-24T08:04:48;94717.00;;;26.19;45.92
3428;BME280;1727;42.624;23.406;2023-05-24T08:07:15;94719.50;;;26.32;45.42
3428;BME280;1727;42.624;23.406;2023-05-24T08:09:42;94723.06;;;26.44;44.92
3428;BME280;1727;42.624;23.406;2023-05-24T08:12:08;94718.63;;;26.62;44.59
3428;BME280;1727;42.624;23.406;2023-05-24T08:14:35;94722.72;;;26.64;46.73
3428;BME280;1727;42.624;23.406;2023-05-24T08:17:03;94717.00;;;26.61;45.89
3428;BME280;1727;42.624;23.406;2023-05-24T08:19:30;94721.91;;;26.64;44.22
3428;BME280;1727;42.624;23.406;2023-05-24T08:22:00;94718.94;;;26.42;45.63
3428;BME280;1727;42.624;23.406;2023-05-24T08:24:29;94716.84;;;26.55;43.71
3428;BME280;1727;42.624;23.406;2023-05-24T08:26:56;94712.25;;;26.33;44.34
3428;BME280;1727;42.624;23.406;2023-05-24T08:29:23;94714.38;;;26.42;44.57
3428;BME280;1727;42.624;23.406;2023-05-24T08:31:50;94715.13;;;26.19;40.86
3428;BME280;1727;42.624;23.406;2023-05-24T08:34:18;94710.63;;;26.32;39.67
3428;BME280;1727;42.624;23.406;2023-05-24T08:36:45;94706.44;;;26.47;39.25
3428;BME280;1727;42.624;23.406;2023-05-24T08:39:11;94705.16;;;26.62;39.88
3428;BME280;1727;42.624;23.406;2023-05-24T08:41:39;94705.97;;;26.74;40.96
3428;BME280;1727;42.624;23.406;2023-05-24T08:44:06;94705.84;;;26.80;40.90
3428;BME280;1727;42.624;23.406;2023-05-24T08:46:34;94709.13;;;26.59;41.63
3428;BME280;1727;42.624;23.406;2023-05-24T08:49:01;94704.69;;;26.76;41.75
3428;BME280;1727;42.624;23.406;2023-05-24T08:51:30;94705.97;;;26.74;40.73
3428;BME280;1727;42.624;23.406;2023-05-24T08:53:58;94704.56;;;26.83;38.03
3428;BME280;1727;42.624;23.406;2023-05-24T08:56:26;94702.34;;;26.68;36.65
3428;BME280;1727;42.624;23.406;2023-05-24T08:58:54;94705.44;;;26.30;38.33
3428;BME280;1727;42.624;23.406;2023-05-24T09:01:23;94709.78;;;25.89;39.79
3428;BME280;1727;42.624;23.406;2023-05-24T09:03:50;94711.88;;;25.57;40.21
3428;BME280;1727;42.624;23.406;2023-05-24T09:06:17;94708.50;;;25.62;42.29
3428;BME280;1727;42.624;23.406;2023-05-24T09:08:46;94710.34;;;25.80;40.66
3428;BME280;1727;42.624;23.406;2023-05-24T09:11:17;94699.75;;;25.97;40.24
3428;BME280;1727;42.624;23.406;2023-05-24T09:13:44;94706.38;;;26.24;40.42
3428;BME280;1727;42.624;23.406;2023-05-24T09:16:11;94703.63;;;26.42;40.29
3428;BME280;1727;42.624;23.406;2023-05-24T09:18:39;94705.38;;;26.48;37.41
3428;BME280;1727;42.624;23.406;2023-05-24T09:21:06;94702.69;;;26.48;37.39
3428;BME280;1727;42.624;23.406;2023-05-24T09:23:34;94703.63;;;26.01;36.74
3428;BME280;1727;42.624;23.406;2023-05-24T09:26:07;94708.50;;;25.92;37.00
3428;BME280;1727;42.624;23.406;2023-05-24T09:28:35;94699.88;;;26.02;37.29
3428;BME280;1727;42.624;23.406;2023-05-24T09:31:02;94700.72;;;25.72;36.38
3428;BME280;1727;42.624;23.406;2023-05-24T09:33:29;94704.72;;;25.51;36.66
3428;BME280;1727;42.624;23.406;2023-05-24T09:35:58;94703.56;;;25.59;37.14
3428;BME280;1727;42.624;23.406;2023-05-24T09:38:25;94699.38;;;25.81;36.60
3428;BME280;1727;42.624;23.406;2023-05-24T09:40:59;94689.59;;;25.99;36.86
3428;BME280;1727;42.624;23.406;2023-05-24T09:43:28;94692.91;;;26.12;37.29
3428;BME280;1727;42.624;23.406;2023-05-24T09:45:55;94696.97;;;25.73;34.76
3428;BME280;1727;42.624;23.406;2023-05-24T09:48:24;94689.88;;;25.30;35.34
3428;BME280;1727;42.624;23.406;2023-05-24T09:51:05;94687.69;;;25.39;37.30
3428;BME280;1727;42.624;23.406;2023-05-24T09:53:34;94693.06;;;25.57;37.30
3428;BME280;1727;42.624;23.406;2023-05-24T09:56:03;94684.91;;;25.64;36.53
3428;BME280;1727;42.624;23.406;2023-05-24T09:58:32;94685.66;;;25.71;38.17
3428;BME280;1727;42.624;23.406;2023-05-24T10:01:04;94685.59;;;25.89;38.54
3428;BME280;1727;42.624;23.406;2023-05-24T10:03:31;94685.00;;;25.87;38.31
3428;BME280;1727;42.624;23.406;2023-05-24T10:05:58;94688.63;;;25.81;37.82
3428;BME280;1727;42.624;23.406;2023-05-24T10:08:26;94682.56;;;25.86;37.09
3428;BME280;1727;42.624;23.406;2023-05-24T10:10:54;94674.94;;;25.83;35.90
3428;BME280;1727;42.624;23.406;2023-05-24T10:13:22;94674.34;;;25.81;37.03
3428;BME280;1727;42.624;23.406;2023-05-24T10:15:50;94677.31;;;25.43;35.01
3428;BME280;1727;42.624;23.406;2023-05-24T10:18:17;94673.59;;;25.44;37.23
3428;BME280;1727;42.624;23.406;2023-05-24T10:20:44;94677.63;;;25.53;38.16
3428;BME280;1727;42.624;23.406;2023-05-24T10:23:14;94669.69;;;25.58;37.56
3428;BME280;1727;42.624;23.406;2023-05-24T10:25:49;94673.75;;;25.49;36.43
3428;BME280;1727;42.624;23.406;2023-05-24T10:28:19;94668.19;;;25.62;36.63
3428;BME280;1727;42.624;23.406;2023-05-24T10:30:57;94672.94;;;25.78;36.03
3428;BME280;1727;42.624;23.406;2023-05-24T10:33:26;94666.19;;;25.87;37.59
3428;BME280;1727;42.624;23.406;2023-05-24T10:35:53;94660.94;;;25.92;37.22
3428;BME280;1727;42.624;23.406;2023-05-24T10:38:22;94660.94;;;25.92;36.23
3428;BME280;1727;42.624;23.406;2023-05-24T10:40:49;94656.03;;;26.01;36.18
3428;BME280;1727;42.624;23.406;2023-05-24T10:43:17;94650.69;;;26.13;35.71
3428;BME280;1727;42.624;23.406;2023-05-24T10:45:48;94642.03;;;26.11;34.96
3428;BME280;1727;42.624;23.406;2023-05-24T10:48:35;94651.03;;;26.16;35.62
3428;BME280;1727;42.624;23.406;2023-05-24T10:51:31;94647.66;;;26.21;34.96
3428;BME280;1727;42.624;23.406;2023-05-24T10:54:15;94635.47;;;26.30;34.77
3428;BME280;1727;42.624;23.406;2023-05-24T10:56:44;94640.75;;;26.25;36.47
3428;BME280;1727;42.624;23.406;2023-05-24T10:59:28;94649.25;;;25.99;36.24
3428;BME280;1727;42.624;23.406;2023-05-24T11:01:56;94640.94;;;25.88;36.88
3428;BME280;1727;42.624;23.406;2023-05-24T11:04:29;94637.44;;;25.88;35.99
3428;BME280;1727;42.624;23.406;2023-05-24T11:07:00;94627.72;;;25.75;37.49
3428;BME280;1727;42.624;23.406;2023-05-24T11:09:28;94630.00;;;25.72;35.17
3428;BME280;1727;42.624;23.406;2023-05-24T11:11:56;94641.00;;;25.70;36.69
3428;BME280;1727;42.624;23.406;2023-05-24T11:14:27;94633.91;;;25.46;34.56
3428;BME280;1727;42.624;23.406;2023-05-24T11:16:54;94636.72;;;25.51;35.77
3428;BME280;1727;42.624;23.406;2023-05-24T11:19:22;94640.81;;;25.53;34.14
3428;BME280;1727;42.624;23.406;2023-05-24T11:21:52;94632.63;;;25.48;34.35
3428;BME280;1727;42.624;23.406;2023-05-24T11:24:19;94628.06;;;25.49;34.98
3428;BME280;1727;42.624;23.406;2023-05-24T11:26:49;94625.63;;;25.59;35.18
3428;BME280;1727;42.624;23.406;2023-05-24T11:29:16;94635.78;;;25.45;34.17
3428;BME280;1727;42.624;23.406;2023-05-24T11:31:49;94622.38;;;25.57;35.16
3428;BME280;1727;42.624;23.406;2023-05-24T11:34:16;94626.19;;;25.79;35.48
3428;BME280;1727;42.624;23.406;2023-05-24T11:36:43;94620.25;;;25.89;35.00
3428;BME280;1727;42.624;23.406;2023-05-24T11:39:12;94621.44;;;26.05;35.47
3428;BME280;1727;42.624;23.406;2023-05-24T11:41:39;94615.25;;;26.16;33.96
3428;BME280;1727;42.624;23.406;2023-05-24T11:44:07;94616.31;;;26.15;33.61
3428;BME280;1727;42.624;23.406;2023-05-24T11:46:34;94611.88;;;26.32;34.64
3428;BME280;1727;42.624;23.406;2023-05-24T11:49:03;94605.44;;;26.33;33.81
3428;BME280;1727;42.624;23.406;2023-05-24T11:51:32;94606.63;;;26.37;33.53
3428;BME280;1727;42.624;23.406;2023-05-24T11:53:59;94609.34;;;26.37;34.11
3428;BME280;1727;42.624;23.406;2023-05-24T11:56:28;94606.50;;;26.32;34.03
3428;BME280;1727;42.624;23.406;2023-05-24T11:59:05;94600.22;;;26.38;33.61
3428;BME280;1727;42.624;23.406;2023-05-24T12:01:34;94604.72;;;26.26;33.74
3428;BME280;1727;42.624;23.406;2023-05-24T12:04:04;94590.78;;;26.29;34.62
3428;BME280;1727;42.624;23.406;2023-05-24T12:06:35;94590.25;;;26.39;34.25
3428;BME280;1727;42.624;23.406;2023-05-24T12:09:02;94595.63;;;26.50;32.60
3428;BME280;1727;42.624;23.406;2023-05-24T12:11:34;94586.84;;;26.55;33.54
3428;BME280;1727;42.624;23.406;2023-05-24T12:14:03;94587.88;;;26.54;33.51
3428;BME280;1727;42.624;23.406;2023-05-24T12:16:30;94587.22;;;26.35;34.28
3428;BME280;1727;42.624;23.406;2023-05-24T12:18:58;94582.28;;;26.32;36.20
3428;BME280;1727;42.624;23.406;2023-05-24T12:21:24;94575.25;;;25.84;34.87
3428;BME280;1727;42.624;23.406;2023-05-24T12:23:56;94581.78;;;25.88;34.62
3428;BME280;1727;42.624;23.406;2023-05-24T12:26:22;94584.72;;;25.75;35.24
3428;BME280;1727;42.624;23.406;2023-05-24T12:28:54;94571.38;;;25.92;35.16
3428;BME280;1727;42.624;23.406;2023-05-24T12:31:23;94573.59;;;25.95;35.30
3428;BME280;1727;42.624;23.406;2023-05-24T12:33:50;94574.34;;;26.02;34.60
3428;BME280;1727;42.624;23.406;2023-05-24T12:36:17;94568.03;;;26.08;34.42
3428;BME280;1727;42.624;23.406;2023-05-24T12:38:44;94565.09;;;26.10;35.33
3428;BME280;1727;42.624;23.406;2023-05-24T12:41:11;94563.22;;;26.10;34.45
3428;BME280;1727;42.624;23.406;2023-05-24T12:43:38;94556.66;;;26.18;35.39
3428;BME280;1727;42.624;23.406;2023-05-24T12:46:07;94554.56;;;26.20;34.29
3428;BME280;1727;42.624;23.406;2023-05-24T12:48:34;94555.25;;;26.27;33.49
3428;BME280;1727;42.624;23.406;2023-05-24T12:51:01;94561.69;;;26.26;34.62
3428;BME280;1727;42.624;23.406;2023-05-24T12:53:28;94562.41;;;26.33;35.28
3428;BME280;1727;42.624;23.406;2023-05-24T12:55:55;94555.25;;;26.27;33.87
3428;BME280;1727;42.624;23.406;2023-05-24T12:58:21;94560.41;;;26.05;34.23
3428;BME280;1727;42.624;23.406;2023-05-24T13:00:48;94548.03;;;26.04;35.22
3428;BME280;1727;42.624;23.406;2023-05-24T13:03:17;94555.56;;;25.72;33.62
3428;BME280;1727;42.624;23.406;2023-05-24T13:05:44;94547.88;;;25.87;34.25
3428;BME280;1727;42.624;23.406;2023-05-24T13:08:11;94547.66;;;25.89;34.81
3428;BME280;1727;42.624;23.406;2023-05-24T13:10:38;94547.41;;;25.90;36.76
3428;BME280;1727;42.624;23.406;2023-05-24T13:13:06;94545.91;;;25.83;34.67
3428;BME280;1727;42.624;23.406;2023-05-24T13:15:32;94541.09;;;25.85;33.99